createdAt,value
2022-08-07T00:02:35.425Z,15.29
2022-08-07T00:04:17.270Z,15.23
2022-08-07T00:06:52.628Z,15.14
2022-08-07T00:09:22.582Z,15.18
2022-08-07T00:11:55.494Z,15.17
2022-08-07T00:14:30.296Z,15.16
2022-08-07T00:16:59.087Z,15.11
2022-08-07T00:20:00.644Z,15.03
2022-08-07T00:22:24.166Z,15.02
2022-08-07T00:25:02.912Z,14.95
2022-08-07T00:27:35.798Z,14.93
2022-08-07T00:30:27.506Z,14.93
2022-08-07T00:32:57.579Z,14.81
2022-08-07T00:35:29.851Z,14.70
2022-08-07T00:37:58.661Z,14.71
2022-08-07T00:40:39.488Z,14.69
2022-08-07T00:43:58.577Z,14.63
2022-08-07T00:45:57.764Z,14.55
2022-08-07T00:48:32.173Z,14.58
2022-08-07T00:51:02.981Z,14.55
2022-08-07T00:53:38.878Z,14.54
2022-08-07T00:56:19.141Z,14.56
2022-08-07T00:58:49.674Z,14.54
2022-08-07T01:01:20.708Z,14.54
2022-08-07T01:03:57.277Z,14.54
2022-08-07T01:06:30.354Z,14.56
2022-08-07T01:09:00.939Z,14.60
2022-08-07T01:12:23.294Z,14.61
2022-08-07T01:14:21.100Z,14.66
2022-08-07T01:16:56.384Z,14.73
2022-08-07T01:19:26.653Z,14.75
2022-08-07T01:21:56.382Z,14.69
2022-08-07T01:24:24.963Z,14.63
2022-08-07T01:26:53.837Z,14.58
2022-08-07T01:29:24.264Z,14.62
2022-08-07T01:31:59.668Z,14.58
2022-08-07T01:34:31.405Z,14.53
2022-08-07T01:37:02.450Z,14.56
2022-08-07T01:39:41.386Z,14.54
2022-08-07T01:42:38.986Z,14.55
2022-08-07T01:45:04.268Z,14.53
2022-08-07T01:48:18.300Z,14.50
2022-08-07T01:50:22.704Z,14.56
2022-08-07T01:52:59.933Z,14.49
2022-08-07T01:55:30.938Z,14.39
2022-08-07T01:58:06.896Z,14.36
2022-08-07T02:01:10.347Z,14.35
2022-08-07T02:03:54.740Z,14.31
2022-08-07T02:06:31.933Z,14.35
2022-08-07T02:09:05.264Z,14.31
2022-08-07T02:12:03.705Z,14.27
2022-08-07T02:14:40.432Z,14.25
2022-08-07T02:17:09.499Z,14.24
2022-08-07T02:20:05.339Z,14.22
2022-08-07T02:22:31.801Z,14.14
2022-08-07T02:25:07.212Z,14.13
2022-08-07T02:27:44.363Z,14.06
2022-08-07T02:30:20.921Z,13.99
2022-08-07T02:33:03.952Z,14.00
2022-08-07T02:36:28.645Z,14.03
2022-08-07T02:38:31.943Z,13.99
2022-08-07T02:41:03.771Z,13.98
2022-08-07T02:43:33.955Z,13.96
2022-08-07T02:46:04.469Z,13.99
2022-08-07T02:48:32.637Z,14.00
2022-08-07T02:51:14.212Z,14.02
2022-08-07T02:53:58.982Z,13.98
2022-08-07T02:56:32.851Z,14.03
2022-08-07T02:59:04.265Z,13.97
2022-08-07T03:01:35.122Z,13.97
2022-08-07T03:04:07.642Z,14.02
2022-08-07T03:06:42.027Z,14.00
2022-08-07T03:09:13.708Z,13.97
2022-08-07T03:11:51.896Z,13.97
2022-08-07T03:14:22.608Z,13.98
2022-08-07T03:16:50.730Z,13.97
2022-08-07T03:19:21.555Z,13.99
2022-08-07T03:21:51.177Z,13.92
2022-08-07T03:24:26.897Z,13.94
2022-08-07T03:27:01.567Z,13.97
2022-08-07T03:29:36.610Z,13.93
2022-08-07T03:32:13.508Z,13.88
2022-08-07T03:34:47.219Z,13.85
2022-08-07T03:37:32.490Z,13.79
2022-08-07T03:40:15.600Z,13.85
2022-08-07T03:42:46.480Z,13.82
2022-08-07T03:45:30.112Z,13.79
2022-08-07T03:48:00.075Z,13.79
2022-08-07T03:50:29.249Z,13.72
2022-08-07T03:53:00.167Z,13.67
2022-08-07T03:55:52.953Z,13.54
2022-08-07T03:59:06.817Z,13.46
2022-08-07T04:01:13.829Z,13.37
2022-08-07T04:03:53.421Z,13.36
2022-08-07T04:06:36.195Z,13.32
2022-08-07T04:09:15.030Z,13.34
2022-08-07T04:12:27.735Z,13.37
2022-08-07T04:14:38.908Z,13.36
2022-08-07T04:17:20.207Z,13.34
2022-08-07T04:19:51.885Z,13.35
2022-08-07T04:22:23.538Z,13.36
2022-08-07T04:24:58.139Z,13.41
2022-08-07T04:27:26.893Z,13.43
2022-08-07T04:30:02.152Z,13.39
2022-08-07T04:32:34.459Z,13.40
2022-08-07T04:35:05.411Z,13.37
2022-08-07T04:37:40.663Z,13.37
2022-08-07T04:40:26.579Z,13.42
2022-08-07T04:43:01.973Z,13.40
2022-08-07T04:45:57.879Z,13.46
2022-08-07T04:48:36.869Z,13.48
2022-08-07T04:51:09.028Z,13.52
2022-08-07T04:54:01.918Z,13.55
2022-08-07T04:58:12.541Z,13.60
2022-08-07T05:00:11.563Z,13.66
2022-08-07T05:02:29.346Z,13.65
2022-08-07T05:05:11.562Z,13.72
2022-08-07T05:07:59.578Z,13.73
2022-08-07T05:10:33.458Z,13.80
2022-08-07T05:14:44.461Z,13.86
2022-08-07T05:15:56.507Z,13.91
2022-08-07T05:18:29.795Z,14.00
2022-08-07T05:21:00.369Z,14.04
2022-08-07T05:23:35.390Z,14.14
2022-08-07T05:26:13.582Z,14.22
2022-08-07T05:28:50.097Z,14.32
2022-08-07T05:31:21.354Z,14.32
2022-08-07T05:34:01.051Z,14.42
2022-08-07T05:36:35.250Z,14.48
2022-08-07T05:39:08.952Z,14.56
2022-08-07T05:42:02.472Z,14.66
2022-08-07T05:44:36.425Z,14.78
2022-08-07T05:47:28.167Z,14.86
2022-08-07T05:50:00.256Z,14.98
2022-08-07T05:52:30.007Z,15.09
2022-08-07T05:55:08.420Z,15.21
2022-08-07T05:57:41.955Z,15.36
2022-08-07T06:00:16.051Z,15.52
2022-08-07T06:02:49.554Z,15.78
2022-08-07T06:05:25.834Z,15.89
2022-08-07T06:08:29.360Z,16.08
2022-08-07T06:10:46.644Z,16.25
2022-08-07T06:13:19.553Z,16.35
2022-08-07T06:16:10.232Z,16.50
2022-08-07T06:18:42.985Z,16.69
2022-08-07T06:22:15.027Z,16.86
2022-08-07T06:24:48.172Z,17.08
2022-08-07T06:26:49.708Z,17.21
2022-08-07T06:29:18.979Z,17.42
2022-08-07T06:31:50.504Z,17.54
2022-08-07T06:34:20.538Z,17.71
2022-08-07T06:36:52.068Z,17.84
2022-08-07T06:40:16.977Z,17.95
2022-08-07T06:42:12.312Z,18.24
2022-08-07T06:44:42.153Z,18.45
2022-08-07T06:47:12.571Z,18.65
2022-08-07T06:49:51.888Z,18.91
2022-08-07T06:52:35.525Z,19.17
2022-08-07T06:55:31.421Z,19.41
2022-08-07T06:57:59.334Z,19.26
2022-08-07T07:00:29.393Z,19.63
2022-08-07T07:03:00.818Z,20.03
2022-08-07T07:06:04.111Z,20.17
2022-08-07T07:08:28.059Z,20.47
2022-08-07T07:10:57.877Z,20.68
2022-08-07T07:13:55.892Z,20.82
2022-08-07T07:16:30.487Z,21.06
2022-08-07T07:19:55.501Z,21.00
2022-08-07T07:22:05.221Z,21.24
2022-08-07T07:24:56.953Z,21.61
2022-08-07T07:27:35.373Z,21.35
2022-08-07T07:30:32.816Z,21.71
2022-08-07T07:33:07.923Z,21.86
2022-08-07T07:35:54.402Z,21.83
2022-08-07T07:38:26.290Z,21.54
2022-08-07T07:41:01.955Z,21.99
2022-08-07T07:43:47.876Z,22.40
2022-08-07T07:46:37.035Z,22.24
2022-08-07T07:50:34.081Z,22.24
2022-08-07T07:52:02.726Z,22.37
2022-08-07T07:54:33.277Z,22.77
2022-08-07T07:57:06.796Z,23.69
2022-08-07T07:59:59.595Z,25.24
2022-08-07T08:02:35.367Z,26.66
2022-08-07T08:05:11.516Z,28.90
2022-08-07T08:07:59.649Z,29.83
2022-08-07T08:10:35.733Z,32.16
2022-08-07T08:13:10.667Z,33.35
2022-08-07T08:15:58.607Z,34.44
2022-08-07T08:18:29.214Z,36.45
2022-08-07T08:21:01.234Z,36.52
2022-08-07T08:23:49.020Z,37.52
2022-08-07T08:26:35.806Z,37.61
2022-08-07T08:29:05.409Z,37.06
2022-08-07T08:32:17.277Z,38.15
2022-08-07T08:34:29.106Z,40.08
2022-08-07T08:36:58.596Z,38.78
2022-08-07T08:39:39.490Z,38.26
2022-08-07T08:42:25.763Z,39.48
2022-08-07T08:45:04.830Z,39.97
2022-08-07T08:47:51.955Z,39.59
2022-08-07T08:50:35.144Z,38.83
2022-08-07T08:53:32.500Z,41.68
2022-08-07T08:56:06.718Z,42.97
2022-08-07T08:58:44.920Z,43.74
2022-08-07T09:01:19.248Z,44.24
2022-08-07T09:04:00.743Z,44.77
2022-08-07T09:06:40.494Z,43.53
2022-08-07T09:09:33.123Z,42.88
2022-08-07T09:12:31.430Z,43.48
2022-08-07T09:16:20.353Z,43.13
2022-08-07T09:18:33.329Z,40.91
2022-08-07T09:21:57.849Z,40.58
2022-08-07T09:24:33.304Z,43.33
2022-08-07T09:27:18.142Z,42.29
2022-08-07T09:30:04.760Z,43.62
2022-08-07T09:32:56.546Z,44.91
2022-08-07T09:36:05.014Z,45.64
2022-08-07T09:38:35.355Z,45.60
2022-08-07T09:41:10.609Z,44.96
2022-08-07T09:44:06.150Z,44.39
2022-08-07T09:47:50.854Z,42.61
2022-08-07T09:50:02.860Z,43.18
2022-08-07T09:52:51.875Z,42.10
2022-08-07T09:55:29.403Z,40.98
2022-08-07T09:58:51.187Z,41.17
2022-08-07T10:01:51.740Z,40.47
2022-08-07T10:04:53.078Z,41.26
2022-08-07T10:07:53.711Z,39.32
2022-08-07T10:11:17.003Z,36.91
2022-08-07T10:14:00.734Z,37.58
2022-08-07T10:17:14.465Z,38.75
2022-08-07T10:19:58.785Z,37.67
2022-08-07T10:22:45.334Z,38.86
2022-08-07T10:25:22.594Z,36.82
2022-08-07T10:28:13.862Z,36.55
2022-08-07T10:30:59.660Z,36.91
2022-08-07T10:34:06.676Z,38.59
2022-08-07T10:37:04.130Z,39.94
2022-08-07T10:39:57.618Z,39.82
2022-08-07T10:42:40.549Z,39.59
2022-08-07T10:45:44.352Z,38.75
2022-08-07T10:48:20.223Z,38.46
2022-08-07T10:50:51.992Z,38.01
2022-08-07T10:53:44.001Z,36.46
2022-08-07T10:56:31.052Z,36.60
2022-08-07T10:59:15.653Z,36.51
2022-08-07T11:02:04.733Z,37.14
2022-08-07T11:05:11.538Z,37.55
2022-08-07T11:07:59.305Z,38.52
2022-08-07T11:10:37.394Z,38.07
2022-08-07T11:13:42.391Z,38.62
2022-08-07T11:16:07.523Z,37.76
2022-08-07T11:18:42.506Z,37.99
2022-08-07T11:21:25.468Z,37.49
2022-08-07T11:23:59.428Z,37.46
2022-08-07T11:26:34.189Z,37.04
2022-08-07T11:29:40.599Z,36.48
2022-08-07T11:32:09.278Z,35.86
2022-08-07T11:34:50.196Z,36.06
2022-08-07T11:37:38.717Z,36.10
2022-08-07T11:40:40.974Z,36.17
2022-08-07T11:43:41.280Z,35.18
2022-08-07T11:46:28.139Z,33.38
2022-08-07T11:49:28.686Z,32.34
2022-08-07T11:52:19.855Z,32.06
2022-08-07T11:55:18.598Z,32.23
2022-08-07T11:58:00.273Z,32.61
2022-08-07T12:00:40.407Z,32.13
2022-08-07T12:03:41.956Z,32.71
2022-08-07T12:06:44.826Z,32.95
2022-08-07T12:09:29.429Z,33.76
2022-08-07T12:12:09.748Z,33.48
2022-08-07T12:14:55.371Z,33.81
2022-08-07T12:17:35.877Z,34.11
2022-08-07T12:20:20.811Z,34.50
2022-08-07T12:23:17.995Z,34.39
2022-08-07T12:26:23.083Z,34.75
2022-08-07T12:29:04.978Z,34.47
2022-08-07T12:31:53.176Z,33.80
2022-08-07T12:34:30.374Z,33.90
2022-08-07T12:37:00.452Z,33.55
2022-08-07T12:39:42.715Z,33.75
2022-08-07T12:42:17.109Z,33.63
2022-08-07T12:44:56.913Z,33.51
2022-08-07T12:47:33.051Z,32.50
2022-08-07T12:50:39.315Z,32.60
2022-08-07T12:53:17.723Z,32.56
2022-08-07T12:56:02.287Z,33.69
2022-08-07T12:58:59.545Z,35.40
2022-08-07T13:01:54.038Z,35.55
2022-08-07T13:04:49.066Z,36.35
2022-08-07T13:08:13.682Z,36.93
2022-08-07T13:10:53.811Z,37.96
2022-08-07T13:13:57.614Z,39.29
2022-08-07T13:16:36.800Z,40.44
2022-08-07T13:19:25.193Z,41.23
2022-08-07T13:22:19.931Z,40.87
2022-08-07T13:25:03.116Z,40.64
2022-08-07T13:28:10.861Z,41.37
2022-08-07T13:30:41.472Z,39.87
2022-08-07T13:34:33.384Z,38.46
2022-08-07T13:36:17.417Z,37.91
2022-08-07T13:38:54.334Z,36.71
2022-08-07T13:41:35.992Z,36.43
2022-08-07T13:44:13.091Z,36.65
2022-08-07T13:46:49.692Z,35.34
2022-08-07T13:50:34.180Z,35.32
2022-08-07T13:52:31.590Z,34.72
2022-08-07T13:55:07.672Z,33.74
2022-08-07T13:57:58.995Z,33.03
2022-08-07T14:00:54.216Z,32.39
2022-08-07T14:04:06.965Z,32.29
2022-08-07T14:06:35.008Z,32.71
2022-08-07T14:09:06.465Z,32.77
2022-08-07T14:11:53.567Z,32.38
2022-08-07T14:14:39.840Z,32.21
2022-08-07T14:17:31.970Z,32.94
2022-08-07T14:20:40.411Z,32.89
2022-08-07T14:23:06.546Z,32.79
2022-08-07T14:25:46.144Z,33.12
2022-08-07T14:28:56.008Z,33.27
2022-08-07T14:31:09.433Z,32.61
2022-08-07T14:33:44.795Z,32.00
2022-08-07T14:36:16.872Z,32.31
2022-08-07T14:38:50.433Z,32.01
2022-08-07T14:41:33.808Z,32.45
2022-08-07T14:44:20.798Z,33.36
2022-08-07T14:47:14.298Z,34.96
2022-08-07T14:49:56.718Z,36.40
2022-08-07T14:52:34.719Z,38.42
2022-08-07T14:55:04.618Z,39.67
2022-08-07T14:57:55.260Z,40.73
2022-08-07T15:00:32.066Z,40.75
2022-08-07T15:03:19.439Z,40.37
2022-08-07T15:05:54.684Z,38.57
2022-08-07T15:08:50.168Z,36.74
2022-08-07T15:11:54.437Z,34.15
2022-08-07T15:14:17.873Z,33.67
2022-08-07T15:16:54.832Z,33.40
2022-08-07T15:20:30.742Z,33.24
2022-08-07T15:28:34.910Z,33.33
2022-08-07T15:31:05.413Z,33.12
2022-08-07T15:33:36.798Z,32.95
2022-08-07T15:36:08.024Z,33.09
2022-08-07T15:38:58.663Z,32.69
2022-08-07T15:42:44.580Z,32.27
2022-08-07T15:44:23.492Z,31.86
2022-08-07T15:46:58.599Z,31.49
2022-08-07T15:50:04.820Z,31.26
2022-08-07T15:52:30.800Z,30.61
2022-08-07T15:55:03.440Z,30.57
2022-08-07T15:57:48.904Z,30.47
2022-08-07T16:00:31.186Z,29.28
2022-08-07T16:03:21.725Z,29.28
2022-08-07T16:05:57.466Z,29.27
2022-08-07T16:08:37.761Z,29.13
2022-08-07T16:11:25.412Z,28.60
2022-08-07T16:14:06.710Z,28.46
2022-08-07T16:16:49.952Z,28.24
2022-08-07T16:19:58.704Z,28.22
2022-08-07T16:22:55.084Z,27.88
2022-08-07T16:25:55.035Z,28.02
2022-08-07T16:30:05.490Z,28.12
2022-08-07T16:32:00.729Z,27.94
2022-08-07T16:34:48.134Z,27.64
2022-08-07T16:38:05.547Z,27.52
2022-08-07T16:41:01.616Z,27.41
2022-08-07T16:44:06.715Z,27.39
2022-08-07T16:47:04.690Z,27.15
2022-08-07T16:50:35.726Z,27.09
2022-08-07T16:53:56.990Z,26.97
2022-08-07T16:56:23.902Z,26.61
2022-08-07T16:59:14.440Z,26.54
2022-08-07T17:01:56.844Z,26.40
2022-08-07T17:04:57.555Z,26.26
2022-08-07T17:07:51.628Z,26.16
2022-08-07T17:10:33.987Z,25.91
2022-08-07T17:13:41.390Z,25.92
2022-08-07T17:16:22.130Z,25.80
2022-08-07T17:19:05.727Z,25.69
2022-08-07T17:21:51.754Z,25.63
2022-08-07T17:24:43.229Z,25.55
2022-08-07T17:27:19.789Z,25.39
2022-08-07T17:30:13.970Z,25.27
2022-08-07T17:34:09.814Z,25.11
2022-08-07T17:36:02.608Z,25.02
2022-08-07T17:38:35.486Z,24.91
2022-08-07T17:42:01.107Z,24.80
2022-08-07T17:44:06.480Z,24.66
2022-08-07T17:46:41.735Z,24.58
2022-08-07T17:49:23.920Z,24.49
2022-08-07T17:52:12.634Z,24.39
2022-08-07T17:54:53.169Z,24.29
2022-08-07T17:57:31.981Z,24.18
2022-08-07T18:00:34.291Z,24.07
2022-08-07T18:03:17.997Z,23.99
2022-08-07T18:06:01.716Z,23.91
2022-08-07T18:08:54.269Z,23.83
2022-08-07T18:12:06.953Z,23.73
2022-08-07T18:14:25.068Z,23.62
2022-08-07T18:16:59.179Z,23.54
2022-08-07T18:21:11.604Z,23.40
2022-08-07T18:22:34.651Z,23.25
2022-08-07T18:25:24.173Z,23.17
2022-08-07T18:28:34.573Z,23.07
2022-08-07T18:31:05.512Z,22.97
2022-08-07T18:33:58.846Z,22.87
2022-08-07T18:36:53.729Z,22.79
2022-08-07T18:40:08.225Z,22.68
2022-08-07T18:42:29.552Z,22.59
2022-08-07T18:45:44.508Z,22.51
2022-08-07T18:48:02.568Z,22.42
2022-08-07T18:50:53.930Z,22.32
2022-08-07T18:53:39.898Z,22.24
2022-08-07T18:56:15.007Z,22.13
2022-08-07T18:59:00.030Z,22.05
2022-08-07T19:02:31.852Z,21.97
2022-08-07T19:04:57.494Z,21.85
2022-08-07T19:07:34.770Z,21.77
2022-08-07T19:10:14.795Z,21.66
2022-08-07T19:12:59.191Z,21.55
2022-08-07T19:16:02.695Z,21.49
2022-08-07T19:18:44.663Z,21.42
2022-08-07T19:21:45.074Z,21.35
2022-08-07T19:24:30.770Z,21.26
2022-08-07T19:28:29.186Z,21.12
2022-08-07T19:31:03.911Z,21.03
2022-08-07T19:32:51.894Z,20.99
2022-08-07T19:35:24.743Z,20.89
2022-08-07T19:37:58.164Z,20.82
2022-08-07T19:40:31.719Z,20.76
2022-08-07T19:43:10.851Z,20.71
2022-08-07T19:46:07.131Z,20.58
2022-08-07T19:48:43.084Z,20.52
2022-08-07T19:51:19.454Z,20.53
2022-08-07T19:54:35.745Z,20.58
2022-08-07T19:58:02.107Z,20.55
2022-08-07T19:59:41.004Z,20.49
2022-08-07T20:02:18.996Z,20.50
2022-08-07T20:05:03.779Z,20.50
2022-08-07T20:07:47.380Z,20.43
2022-08-07T20:10:37.042Z,20.39
2022-08-07T20:13:15.728Z,20.34
2022-08-07T20:15:52.198Z,20.30
2022-08-07T20:18:32.406Z,20.18
2022-08-07T20:21:20.900Z,20.05
2022-08-07T20:23:54.255Z,20.02
2022-08-07T20:26:32.170Z,20.01
2022-08-07T20:29:47.200Z,19.97
2022-08-07T20:32:03.838Z,19.89
2022-08-07T20:34:50.676Z,19.87
2022-08-07T20:37:25.318Z,19.80
2022-08-07T20:40:02.501Z,19.78
2022-08-07T20:42:35.545Z,19.72
2022-08-07T20:45:33.341Z,19.67
2022-08-07T20:47:58.333Z,19.62
2022-08-07T20:50:30.498Z,19.56
2022-08-07T20:53:00.330Z,19.53
2022-08-07T20:55:32.051Z,19.51
2022-08-07T20:58:11.970Z,19.51
2022-08-07T21:00:53.256Z,19.44
2022-08-07T21:03:25.611Z,19.37
2022-08-07T21:05:58.462Z,19.31
2022-08-07T21:08:36.584Z,19.24
2022-08-07T21:11:10.775Z,19.18
2022-08-07T21:13:57.378Z,19.18
2022-08-07T21:16:37.877Z,19.12
2022-08-07T21:19:32.529Z,19.08
2022-08-07T21:22:19.106Z,18.99
2022-08-07T21:25:11.686Z,18.92
2022-08-07T21:27:53.802Z,18.84
2022-08-07T21:30:25.122Z,18.77
2022-08-07T21:33:07.999Z,18.72
2022-08-07T21:36:04.118Z,18.66
2022-08-07T21:38:36.739Z,18.64
2022-08-07T21:41:11.056Z,18.58
2022-08-07T21:43:55.802Z,18.53
2022-08-07T21:46:32.968Z,18.47
2022-08-07T21:49:14.858Z,18.46
2022-08-07T21:51:54.748Z,18.40
2022-08-07T21:54:31.623Z,18.35
2022-08-07T21:57:39.477Z,18.33
2022-08-07T22:00:09.493Z,18.34
2022-08-07T22:02:58.604Z,18.31
2022-08-07T22:05:45.208Z,18.30
2022-08-07T22:08:18.967Z,18.30
2022-08-07T22:10:50.870Z,18.29
2022-08-07T22:13:24.217Z,18.26
2022-08-07T22:16:43.356Z,18.22
2022-08-07T22:19:08.786Z,18.20
2022-08-07T22:22:02.042Z,18.23
2022-08-07T22:24:35.449Z,18.18
2022-08-07T22:27:07.838Z,18.17
2022-08-07T22:29:48.214Z,18.14
2022-08-07T22:32:33.495Z,18.19
2022-08-07T22:35:03.425Z,18.12
2022-08-07T22:38:03.581Z,18.02
2022-08-07T22:40:49.425Z,17.94
2022-08-07T22:43:21.343Z,17.78
2022-08-07T22:47:02.329Z,17.49
2022-08-07T22:49:18.263Z,17.47
2022-08-07T22:52:03.701Z,17.51
2022-08-07T22:55:17.546Z,17.50
2022-08-07T22:58:02.881Z,17.60
2022-08-07T23:00:37.722Z,17.58
2022-08-07T23:03:28.326Z,17.56
2022-08-07T23:06:14.853Z,17.53
2022-08-07T23:08:58.512Z,17.44
2022-08-07T23:11:52.827Z,17.39
2022-08-07T23:14:50.219Z,17.40
2022-08-07T23:17:33.986Z,17.46
2022-08-07T23:20:51.332Z,17.32
2022-08-07T23:24:05.357Z,17.31
2022-08-07T23:26:37.082Z,17.32
2022-08-07T23:29:44.019Z,17.27
2022-08-07T23:34:20.124Z,17.23
2022-08-07T23:35:22.842Z,17.20
2022-08-07T23:38:36.735Z,17.16
2022-08-07T23:41:33.244Z,17.11
2022-08-07T23:44:29.464Z,17.10
2022-08-07T23:47:13.655Z,17.03
2022-08-07T23:50:17.717Z,17.06
2022-08-07T23:53:01.513Z,16.94
2022-08-07T23:55:53.420Z,16.87
2022-08-07T23:58:30.528Z,16.85
